Six Mile, Illinois
Current Conditions -  °F | °C
As of 3:52 PM on Wednesday 28 Jan 2015 (Local Time) from KMWA Reporting Station
Scattered Clouds Scattered Clouds  
Wind Chill: 43°   Ceiling: Unl
Heat Index: 48°   Visibility: 20mi
Dew Point: 32°   Wind: 14mph
Humidity: 54%   Direction: 180°S
Pressure: 30.12"   Gusts: 18mph
Location:  37.9184°N, 89.092°W
Report Text: KMWA 282152Z 18012G16KT 20SM SCT200 09/00 A3012
Loading
Personal Weather Stations






























Interactive Weather Map New forecast layout! Learn more

10-Day Weather Forecast

Advertisements
Track Severe Weather on mobile